createdAt,value
2022-07-28T00:00:21.943Z,0.00
2022-07-28T00:01:21.962Z,0.00
2022-07-28T00:02:22.039Z,0.00
2022-07-28T00:03:22.029Z,0.00
2022-07-28T00:04:22.015Z,0.00
2022-07-28T00:05:22.035Z,0.00
2022-07-28T00:06:23.054Z,0.00
2022-07-28T00:07:22.069Z,0.00
2022-07-28T00:08:22.087Z,0.00
2022-07-28T00:09:22.108Z,0.00
2022-07-28T00:10:22.120Z,0.00
2022-07-28T00:11:22.137Z,0.00
2022-07-28T00:12:22.154Z,0.00
2022-07-28T00:13:22.172Z,0.00
2022-07-28T00:14:22.191Z,0.00
2022-07-28T00:15:22.209Z,0.00
2022-07-28T00:16:22.291Z,0.00
2022-07-28T00:17:22.242Z,0.00
2022-07-28T00:18:22.260Z,0.00
2022-07-28T00:19:22.280Z,0.00
2022-07-28T00:20:22.293Z,0.00
2022-07-28T00:21:22.313Z,0.00
2022-07-28T00:22:22.330Z,0.00
2022-07-28T00:23:22.347Z,0.00
2022-07-28T00:24:22.364Z,0.00
2022-07-28T00:25:22.381Z,0.00
2022-07-28T00:26:22.398Z,0.00
2022-07-28T00:27:22.418Z,0.00
2022-07-28T00:28:22.435Z,0.00
2022-07-28T00:29:22.451Z,0.00
2022-07-28T00:30:22.470Z,0.00
2022-07-28T00:31:22.543Z,0.00
2022-07-28T00:32:22.503Z,0.00
2022-07-28T00:33:22.520Z,0.00
2022-07-28T00:34:22.541Z,0.00
2022-07-28T00:35:30.338Z,0.00
2022-07-28T00:36:24.630Z,0.00
2022-07-28T00:37:22.590Z,0.00
2022-07-28T00:38:23.398Z,0.00
2022-07-28T00:39:22.625Z,0.00
2022-07-28T00:40:22.641Z,0.00
2022-07-28T00:41:22.659Z,0.00
2022-07-28T00:42:22.685Z,0.00
2022-07-28T00:43:22.694Z,0.00
2022-07-28T00:44:22.710Z,0.00
2022-07-28T00:45:22.728Z,0.00
2022-07-28T00:46:22.804Z,0.00
2022-07-28T00:47:22.764Z,0.00
2022-07-28T00:48:22.780Z,0.00
2022-07-28T00:49:22.861Z,0.00
2022-07-28T00:50:22.824Z,0.00
2022-07-28T00:51:22.833Z,0.00
2022-07-28T00:52:22.850Z,0.00
2022-07-28T00:53:22.868Z,0.00
2022-07-28T00:54:22.883Z,0.00
2022-07-28T00:55:22.902Z,0.00
2022-07-28T00:56:22.920Z,0.00
2022-07-28T00:57:22.934Z,0.00
2022-07-28T00:58:22.953Z,0.00
2022-07-28T00:59:22.969Z,0.00
2022-07-28T01:00:22.989Z,0.00
2022-07-28T01:01:23.042Z,0.00
2022-07-28T01:02:23.125Z,0.00
2022-07-28T01:03:23.038Z,0.00
2022-07-28T01:04:23.055Z,0.00
2022-07-28T01:05:43.264Z,0.00
2022-07-28T01:06:23.090Z,0.00
2022-07-28T01:07:23.105Z,0.00
2022-07-28T01:08:23.126Z,0.00
2022-07-28T01:09:23.143Z,0.00
2022-07-28T01:10:23.160Z,0.00
2022-07-28T01:11:23.179Z,0.00
2022-07-28T01:12:23.191Z,0.00
2022-07-28T01:13:23.209Z,0.00
2022-07-28T01:14:23.224Z,0.00
2022-07-28T01:15:23.243Z,0.00
2022-07-28T01:16:23.675Z,0.00
2022-07-28T01:17:23.275Z,0.00
2022-07-28T01:18:23.298Z,0.00
2022-07-28T01:19:23.309Z,0.00
2022-07-28T01:20:23.326Z,0.00
2022-07-28T01:21:23.344Z,0.00
2022-07-28T01:22:23.359Z,0.00
2022-07-28T01:23:23.383Z,0.00
2022-07-28T01:24:23.392Z,0.00
2022-07-28T01:25:23.416Z,0.00
2022-07-28T01:26:23.430Z,0.00
2022-07-28T01:27:23.444Z,0.00
2022-07-28T01:28:23.459Z,0.00
2022-07-28T01:29:23.479Z,0.00
2022-07-28T01:30:27.782Z,0.00
2022-07-28T01:31:23.658Z,0.00
2022-07-28T01:32:23.533Z,0.00
2022-07-28T01:33:23.545Z,0.00
2022-07-28T01:34:23.561Z,0.00
2022-07-28T01:35:23.581Z,0.00
2022-07-28T01:36:23.594Z,0.00
2022-07-28T01:37:23.611Z,0.00
2022-07-28T01:38:23.631Z,0.00
2022-07-28T01:39:23.643Z,0.00
2022-07-28T01:40:23.663Z,0.00
2022-07-28T01:41:23.678Z,0.00
2022-07-28T01:42:23.695Z,0.00
2022-07-28T01:43:23.718Z,0.00
2022-07-28T01:44:25.202Z,0.00
2022-07-28T01:45:23.744Z,0.00
2022-07-28T01:46:23.819Z,0.00
2022-07-28T01:47:23.779Z,0.00
2022-07-28T01:48:23.794Z,0.00
2022-07-28T01:49:23.929Z,0.00
2022-07-28T01:50:23.827Z,0.00
2022-07-28T01:51:23.847Z,0.00
2022-07-28T01:52:23.862Z,0.00
2022-07-28T01:53:23.878Z,0.00
2022-07-28T01:54:23.895Z,0.00
2022-07-28T01:55:23.912Z,0.00
2022-07-28T01:56:23.929Z,0.00
2022-07-28T01:57:23.946Z,0.00
2022-07-28T01:58:23.960Z,0.00
2022-07-28T01:59:23.975Z,0.00
2022-07-28T02:00:23.999Z,0.00
2022-07-28T02:01:24.061Z,0.00
2022-07-28T02:02:24.026Z,0.00
2022-07-28T02:03:24.043Z,0.00
2022-07-28T02:04:24.059Z,0.00
2022-07-28T02:05:24.095Z,0.00
2022-07-28T02:06:24.094Z,0.00
2022-07-28T02:07:24.111Z,0.00
2022-07-28T02:08:24.127Z,0.00
2022-07-28T02:09:24.142Z,0.00
2022-07-28T02:10:24.160Z,0.00
2022-07-28T02:11:24.176Z,0.00
2022-07-28T02:12:24.191Z,0.00
2022-07-28T02:13:24.209Z,0.00
2022-07-28T02:14:24.223Z,0.00
2022-07-28T02:15:24.240Z,0.00
2022-07-28T02:16:24.294Z,0.00
2022-07-28T02:17:24.272Z,0.00
2022-07-28T02:18:24.291Z,0.00
2022-07-28T02:19:24.305Z,0.00
2022-07-28T02:20:24.321Z,0.00
2022-07-28T02:21:24.339Z,0.00
2022-07-28T02:22:24.353Z,0.00
2022-07-28T02:23:24.371Z,0.00
2022-07-28T02:24:24.388Z,0.00
2022-07-28T02:25:24.403Z,0.00
2022-07-28T02:26:24.421Z,0.00
2022-07-28T02:27:24.435Z,0.00
2022-07-28T02:28:24.455Z,0.00
2022-07-28T02:29:49.064Z,0.00
2022-07-28T02:30:24.485Z,0.00
2022-07-28T02:31:24.559Z,0.00
2022-07-28T02:32:27.718Z,0.00
2022-07-28T02:33:34.658Z,0.00
2022-07-28T02:34:27.864Z,0.00
2022-07-28T02:35:24.568Z,0.00
2022-07-28T02:36:24.588Z,0.00
2022-07-28T02:37:24.599Z,0.00
2022-07-28T02:38:24.616Z,0.00
2022-07-28T02:39:24.632Z,0.00
2022-07-28T02:40:24.650Z,0.00
2022-07-28T02:41:24.677Z,0.00
2022-07-28T02:42:24.681Z,0.00
2022-07-28T02:43:24.704Z,0.00
2022-07-28T02:44:24.710Z,0.00
2022-07-28T02:45:24.739Z,0.00
2022-07-28T02:46:24.801Z,0.00
2022-07-28T02:47:24.761Z,0.00
2022-07-28T02:48:24.778Z,0.00
2022-07-28T02:49:24.869Z,0.00
2022-07-28T02:50:24.809Z,0.00
2022-07-28T02:51:24.829Z,0.00
2022-07-28T02:52:24.841Z,0.00
2022-07-28T02:53:24.860Z,0.00
2022-07-28T02:54:25.141Z,0.00
2022-07-28T02:55:24.891Z,0.00
2022-07-28T02:56:24.907Z,0.00
2022-07-28T02:57:24.925Z,0.00
2022-07-28T02:58:24.938Z,0.00
2022-07-28T02:59:24.954Z,0.00
2022-07-28T03:00:24.971Z,0.00
2022-07-28T03:01:25.032Z,0.00
2022-07-28T03:02:25.004Z,0.00
2022-07-28T03:03:25.020Z,0.00
2022-07-28T03:04:25.036Z,0.00
2022-07-28T03:05:25.106Z,0.00
2022-07-28T03:06:27.224Z,0.00
2022-07-28T03:07:25.084Z,0.00
2022-07-28T03:08:25.098Z,0.00
2022-07-28T03:09:25.115Z,0.00
2022-07-28T03:10:33.752Z,0.00
2022-07-28T03:11:25.149Z,0.00
2022-07-28T03:12:25.165Z,0.00
2022-07-28T03:13:25.182Z,5.63
2022-07-28T03:14:25.199Z,5.63
2022-07-28T03:15:25.216Z,5.63
2022-07-28T03:16:25.256Z,5.63
2022-07-28T03:17:25.244Z,5.63
2022-07-28T03:18:25.261Z,5.63
2022-07-28T03:19:25.277Z,5.63
2022-07-28T03:20:25.297Z,5.63
2022-07-28T03:21:25.311Z,5.63
2022-07-28T03:22:25.325Z,11.25
2022-07-28T03:23:25.341Z,11.25
2022-07-28T03:24:25.360Z,11.25
2022-07-28T03:25:25.376Z,11.25
2022-07-28T03:26:25.390Z,11.25
2022-07-28T03:27:25.409Z,11.25
2022-07-28T03:28:25.422Z,11.25
2022-07-28T03:29:25.438Z,16.88
2022-07-28T03:30:25.472Z,16.88
2022-07-28T03:31:25.472Z,16.88
2022-07-28T03:32:25.486Z,16.88
2022-07-28T03:33:25.504Z,16.88
2022-07-28T03:34:25.520Z,22.50
2022-07-28T03:35:25.535Z,22.50
2022-07-28T03:36:25.553Z,22.50
2022-07-28T03:37:25.569Z,22.50
2022-07-28T03:38:25.584Z,22.50
2022-07-28T03:39:25.601Z,28.13
2022-07-28T03:40:25.632Z,28.13
2022-07-28T03:41:25.639Z,28.13
2022-07-28T03:42:25.647Z,28.13
2022-07-28T03:43:25.665Z,28.13
2022-07-28T03:44:27.917Z,33.75
2022-07-28T03:45:25.694Z,33.75
2022-07-28T03:46:25.748Z,33.75
2022-07-28T03:47:25.732Z,33.75
2022-07-28T03:48:25.743Z,33.75
2022-07-28T03:49:25.760Z,39.38
2022-07-28T03:50:25.774Z,39.38
2022-07-28T03:51:25.792Z,39.38
2022-07-28T03:52:26.035Z,39.38
2022-07-28T03:53:25.823Z,39.38
2022-07-28T03:54:25.843Z,45.00
2022-07-28T03:55:25.858Z,45.00
2022-07-28T03:56:25.872Z,45.00
2022-07-28T03:57:25.888Z,45.00
2022-07-28T03:58:28.453Z,50.63
2022-07-28T03:59:25.920Z,50.63
2022-07-28T04:00:25.997Z,50.63
2022-07-28T04:01:26.012Z,50.63
2022-07-28T04:02:26.006Z,50.63
2022-07-28T04:03:42.558Z,56.25
2022-07-28T04:04:26.005Z,56.25
2022-07-28T04:05:26.020Z,56.25
2022-07-28T04:06:26.035Z,56.25
2022-07-28T04:07:26.053Z,56.25
2022-07-28T04:08:26.066Z,61.88
2022-07-28T04:09:26.083Z,61.88
2022-07-28T04:10:26.099Z,61.88
2022-07-28T04:11:26.115Z,61.88
2022-07-28T04:12:26.130Z,61.88
2022-07-28T04:13:26.148Z,67.50
2022-07-28T04:14:26.164Z,67.50
2022-07-28T04:15:26.179Z,67.50
2022-07-28T04:16:26.262Z,67.50
2022-07-28T04:17:26.213Z,67.50
2022-07-28T04:18:26.230Z,73.13
2022-07-28T04:19:26.245Z,73.13
2022-07-28T04:20:26.262Z,73.13
2022-07-28T04:21:26.278Z,73.13
2022-07-28T04:22:26.293Z,73.13
2022-07-28T04:23:26.317Z,78.75
2022-07-28T04:24:26.328Z,78.75
2022-07-28T04:25:26.345Z,78.75
2022-07-28T04:26:26.359Z,78.75
2022-07-28T04:27:26.378Z,78.75
2022-07-28T04:28:26.401Z,84.38
2022-07-28T04:29:27.312Z,84.38
2022-07-28T04:30:26.450Z,84.38
2022-07-28T04:31:26.520Z,84.38
2022-07-28T04:32:26.459Z,90.00
2022-07-28T04:33:26.474Z,90.00
2022-07-28T04:34:26.492Z,90.00
2022-07-28T04:35:26.511Z,90.00
2022-07-28T04:36:26.525Z,90.00
2022-07-28T04:37:26.540Z,95.63
2022-07-28T04:38:26.559Z,95.63
2022-07-28T04:39:26.584Z,95.63
2022-07-28T04:40:26.591Z,95.63
2022-07-28T04:41:26.606Z,95.63
2022-07-28T04:42:26.633Z,101.25
2022-07-28T04:43:26.660Z,101.25
2022-07-28T04:44:26.655Z,101.25
2022-07-28T04:45:26.673Z,101.25
2022-07-28T04:46:26.745Z,101.25
2022-07-28T04:47:26.707Z,106.88
2022-07-28T04:48:26.723Z,106.88
2022-07-28T04:49:26.739Z,106.88
2022-07-28T04:50:26.757Z,106.88
2022-07-28T04:51:26.774Z,106.88
2022-07-28T04:52:26.791Z,106.88
2022-07-28T04:53:26.806Z,112.50
2022-07-28T04:54:26.947Z,112.50
2022-07-28T04:55:26.843Z,112.50
2022-07-28T04:56:26.860Z,112.50
2022-07-28T04:57:26.874Z,112.50
2022-07-28T04:58:26.888Z,112.50
2022-07-28T04:59:26.909Z,112.50
2022-07-28T05:00:26.930Z,112.50
2022-07-28T05:01:26.987Z,112.50
2022-07-28T05:02:26.964Z,112.50
2022-07-28T05:03:26.975Z,118.13
2022-07-28T05:04:27.041Z,118.13
2022-07-28T05:05:27.008Z,118.13
2022-07-28T05:06:27.025Z,118.13
2022-07-28T05:07:27.046Z,123.75
2022-07-28T05:08:27.060Z,123.75
2022-07-28T05:09:27.078Z,123.75
2022-07-28T05:10:27.095Z,123.75
2022-07-28T05:11:27.114Z,123.75
2022-07-28T05:12:27.129Z,129.38
2022-07-28T05:13:31.828Z,129.38
2022-07-28T05:14:27.164Z,129.38
2022-07-28T05:15:27.186Z,129.38
2022-07-28T05:16:27.235Z,129.38
2022-07-28T05:17:27.216Z,129.38
2022-07-28T05:18:27.237Z,135.00
2022-07-28T05:19:27.251Z,135.00
2022-07-28T05:20:27.267Z,140.63
2022-07-28T05:21:27.284Z,140.63
2022-07-28T05:22:27.304Z,146.25
2022-07-28T05:23:27.326Z,157.50
2022-07-28T05:24:27.338Z,151.88
2022-07-28T05:25:27.356Z,157.50
2022-07-28T05:26:27.372Z,157.50
2022-07-28T05:27:27.390Z,157.50
2022-07-28T05:28:27.408Z,163.13
2022-07-28T05:29:37.659Z,163.13
2022-07-28T05:30:27.445Z,168.75
2022-07-28T05:31:27.497Z,202.50
2022-07-28T05:32:27.539Z,303.75
2022-07-28T05:33:32.034Z,331.88
2022-07-28T05:34:27.513Z,320.63
2022-07-28T05:35:27.533Z,343.13
2022-07-28T05:36:27.549Z,376.88
2022-07-28T05:37:27.568Z,421.88
2022-07-28T05:38:27.590Z,399.38
2022-07-28T05:39:27.608Z,376.88
2022-07-28T05:40:27.627Z,405.00
2022-07-28T05:41:27.641Z,309.38
2022-07-28T05:42:27.660Z,253.13
2022-07-28T05:43:27.679Z,270.00
2022-07-28T05:44:27.701Z,281.25
2022-07-28T05:45:27.772Z,286.88
2022-07-28T05:46:27.735Z,264.38
2022-07-28T05:47:27.759Z,247.50
2022-07-28T05:48:27.775Z,275.63
2022-07-28T05:49:27.851Z,281.25
2022-07-28T05:50:27.814Z,230.63
2022-07-28T05:51:27.841Z,225.00
2022-07-28T05:52:27.855Z,253.13
2022-07-28T05:53:27.874Z,281.25
2022-07-28T05:54:27.893Z,230.63
2022-07-28T05:55:27.915Z,202.50
2022-07-28T05:56:27.930Z,191.25
2022-07-28T05:57:27.951Z,191.25
2022-07-28T05:58:27.974Z,202.50
2022-07-28T05:59:27.996Z,219.38
2022-07-28T06:00:28.075Z,258.75
2022-07-28T06:01:28.097Z,253.13
2022-07-28T06:02:28.116Z,219.38
2022-07-28T06:03:28.070Z,225.00
2022-07-28T06:04:28.760Z,230.63
2022-07-28T06:05:28.111Z,219.38
2022-07-28T06:06:28.133Z,258.75
2022-07-28T06:07:42.365Z,264.38
2022-07-28T06:08:28.171Z,247.50
2022-07-28T06:09:28.271Z,236.25
2022-07-28T06:10:28.269Z,241.88
2022-07-28T06:11:28.233Z,253.13
2022-07-28T06:12:28.252Z,253.13
2022-07-28T06:13:28.273Z,247.50
2022-07-28T06:14:28.291Z,264.38
2022-07-28T06:15:28.314Z,270.00
2022-07-28T06:16:28.338Z,281.25
2022-07-28T06:17:28.350Z,286.88
2022-07-28T06:18:28.373Z,360.00
2022-07-28T06:19:28.392Z,399.38
2022-07-28T06:20:28.646Z,393.75
2022-07-28T06:21:28.433Z,399.38
2022-07-28T06:22:28.453Z,421.88
2022-07-28T06:23:28.474Z,365.63
2022-07-28T06:24:28.501Z,348.75
2022-07-28T06:25:28.531Z,376.88
2022-07-28T06:26:28.536Z,416.25
2022-07-28T06:27:28.564Z,506.25
2022-07-28T06:28:28.576Z,714.38
2022-07-28T06:29:28.595Z,624.38
2022-07-28T06:30:28.635Z,489.38
2022-07-28T06:31:28.690Z,489.38
2022-07-28T06:32:28.659Z,585.00
2022-07-28T06:33:28.679Z,680.63
2022-07-28T06:34:28.702Z,843.75
2022-07-28T06:35:28.723Z,950.63
2022-07-28T06:36:28.747Z,1018.13
2022-07-28T06:37:28.770Z,911.25
2022-07-28T06:38:28.787Z,1136.25
2022-07-28T06:39:28.809Z,1068.75
2022-07-28T06:40:28.830Z,990.00
2022-07-28T06:41:28.854Z,990.00
2022-07-28T06:42:28.874Z,916.88
2022-07-28T06:43:28.898Z,939.38
2022-07-28T06:44:48.251Z,1130.63
2022-07-28T06:45:28.941Z,1080.00
2022-07-28T06:46:28.997Z,1085.63
2022-07-28T06:47:28.989Z,1046.25
2022-07-28T06:48:29.541Z,1080.00
2022-07-28T06:49:29.084Z,1046.25
2022-07-28T06:50:29.154Z,1063.13
2022-07-28T06:51:29.080Z,1051.88
2022-07-28T06:52:29.105Z,1012.50
2022-07-28T06:53:33.600Z,1018.13
2022-07-28T06:54:29.157Z,1023.75
2022-07-28T06:55:35.386Z,1035.00
2022-07-28T06:56:29.230Z,1057.50
2022-07-28T06:57:33.353Z,1001.25
2022-07-28T06:58:29.250Z,1023.75
2022-07-28T06:59:29.275Z,810.00
2022-07-28T07:00:29.362Z,630.00
2022-07-28T07:01:29.398Z,680.63
2022-07-28T07:02:29.348Z,990.00
2022-07-28T07:03:29.374Z,1051.88
2022-07-28T07:04:29.466Z,1040.63
2022-07-28T07:05:29.421Z,939.38
2022-07-28T07:06:29.457Z,973.13
2022-07-28T07:07:29.472Z,1175.63
2022-07-28T07:08:29.499Z,1141.88
2022-07-28T07:09:29.524Z,1136.25
2022-07-28T07:10:29.549Z,1158.75
2022-07-28T07:11:29.576Z,1147.50
2022-07-28T07:12:29.600Z,1192.50
2022-07-28T07:13:29.626Z,1265.63
2022-07-28T07:14:29.653Z,1288.13
2022-07-28T07:15:29.678Z,1164.38
2022-07-28T07:16:29.750Z,1158.75
2022-07-28T07:17:29.726Z,1305.00
2022-07-28T07:18:29.750Z,1164.38
2022-07-28T07:19:29.783Z,1068.75
2022-07-28T07:20:29.804Z,1006.88
2022-07-28T07:21:29.845Z,1091.25
2022-07-28T07:22:29.870Z,1091.25
2022-07-28T07:23:29.884Z,1074.38
2022-07-28T07:24:29.909Z,995.63
2022-07-28T07:25:29.936Z,1141.88
2022-07-28T07:26:29.964Z,1209.38
2022-07-28T07:27:29.987Z,1282.50
2022-07-28T07:28:30.016Z,1305.00
2022-07-28T07:29:30.410Z,1333.13
2022-07-28T07:30:30.066Z,1350.00
2022-07-28T07:31:30.147Z,1333.13
2022-07-28T07:32:30.121Z,1321.88
2022-07-28T07:33:30.146Z,1338.75
2022-07-28T07:34:30.174Z,1276.88
2022-07-28T07:35:30.201Z,1175.63
2022-07-28T07:36:30.227Z,1237.50
2022-07-28T07:37:30.250Z,1141.88
2022-07-28T07:38:30.280Z,1119.38
2022-07-28T07:39:30.305Z,1119.38
2022-07-28T07:40:30.332Z,1299.38
2022-07-28T07:41:30.360Z,1209.38
2022-07-28T07:42:30.385Z,1108.13
2022-07-28T07:43:30.417Z,1164.38
2022-07-28T07:44:30.450Z,1366.88
2022-07-28T07:45:30.469Z,1260.00
2022-07-28T07:46:30.545Z,1518.75
2022-07-28T07:47:30.521Z,1614.38
2022-07-28T07:48:30.548Z,1693.13
2022-07-28T07:49:45.103Z,1693.13
2022-07-28T07:50:30.605Z,1642.50
2022-07-28T07:51:30.627Z,1445.63
2022-07-28T07:52:30.655Z,1209.38
2022-07-28T07:53:30.682Z,1164.38
2022-07-28T07:54:30.709Z,1113.75
2022-07-28T07:55:37.454Z,1209.38
2022-07-28T07:56:30.765Z,1333.13
2022-07-28T07:57:30.790Z,1614.38
2022-07-28T07:58:30.817Z,1625.63
2022-07-28T07:59:30.844Z,1620.00
2022-07-28T08:00:30.898Z,1580.63
2022-07-28T08:01:30.916Z,1400.63
2022-07-28T08:02:30.927Z,1243.13
2022-07-28T08:03:30.956Z,1265.63
2022-07-28T08:04:31.012Z,1231.88
2022-07-28T08:05:34.961Z,1226.25
2022-07-28T08:06:31.038Z,1170.00
2022-07-28T08:07:31.063Z,967.50
2022-07-28T08:08:33.249Z,731.25
2022-07-28T08:09:31.119Z,843.75
2022-07-28T08:10:31.146Z,787.50
2022-07-28T08:11:31.176Z,939.38
2022-07-28T08:12:31.202Z,1198.13
2022-07-28T08:13:31.230Z,1288.13
2022-07-28T08:14:31.255Z,1231.88
2022-07-28T08:15:31.285Z,1220.63
2022-07-28T08:16:31.347Z,1316.25
2022-07-28T08:17:31.339Z,1406.25
2022-07-28T08:18:31.369Z,1344.38
2022-07-28T08:19:31.397Z,1231.88
2022-07-28T08:20:31.421Z,1265.63
2022-07-28T08:21:31.446Z,1518.75
2022-07-28T08:22:31.476Z,1541.25
2022-07-28T08:23:31.503Z,1760.63
2022-07-28T08:24:33.575Z,1895.63
2022-07-28T08:25:31.604Z,1620.00
2022-07-28T08:26:31.593Z,1591.88
2022-07-28T08:27:31.620Z,1665.00
2022-07-28T08:28:31.642Z,1546.88
2022-07-28T08:29:31.670Z,1513.13
2022-07-28T08:30:33.022Z,1552.50
2022-07-28T08:31:31.765Z,1158.75
2022-07-28T08:32:31.757Z,1518.75
2022-07-28T08:33:31.782Z,1271.25
2022-07-28T08:34:33.693Z,1186.88
2022-07-28T08:35:34.355Z,995.63
2022-07-28T08:36:31.865Z,821.25
2022-07-28T08:37:31.894Z,776.25
2022-07-28T08:38:31.924Z,832.50
2022-07-28T08:39:31.965Z,967.50
2022-07-28T08:40:31.978Z,1080.00
2022-07-28T08:41:33.682Z,1209.38
2022-07-28T08:42:32.034Z,1231.88
2022-07-28T08:43:32.065Z,1288.13
2022-07-28T08:44:32.093Z,1321.88
2022-07-28T08:45:32.512Z,1366.88
2022-07-28T08:46:32.189Z,1147.50
2022-07-28T08:47:40.524Z,1108.13
2022-07-28T08:48:32.201Z,1299.38
2022-07-28T08:49:32.232Z,1434.38
2022-07-28T08:50:32.276Z,1237.50
2022-07-28T08:51:32.287Z,1164.38
2022-07-28T08:52:32.315Z,950.63
2022-07-28T08:53:32.339Z,838.13
2022-07-28T08:54:32.374Z,990.00
2022-07-28T08:55:32.543Z,1091.25
2022-07-28T08:56:32.424Z,1355.63
2022-07-28T08:57:32.457Z,776.25
2022-07-28T08:58:32.481Z,1355.63
2022-07-28T08:59:32.507Z,1018.13
2022-07-28T09:00:32.533Z,770.63
2022-07-28T09:01:39.237Z,1108.13
2022-07-28T09:02:32.726Z,2013.75
2022-07-28T09:03:32.651Z,2075.63
2022-07-28T09:04:32.646Z,1980.00
2022-07-28T09:05:32.672Z,1411.88
2022-07-28T09:06:32.707Z,1569.38
2022-07-28T09:07:32.726Z,2053.13
2022-07-28T09:08:32.753Z,2188.13
2022-07-28T09:09:32.780Z,2210.63
2022-07-28T09:10:32.810Z,1800.00
2022-07-28T09:11:32.839Z,1243.13
2022-07-28T09:12:32.873Z,1513.13
2022-07-28T09:13:32.894Z,1451.25
2022-07-28T09:14:32.923Z,905.63
2022-07-28T09:15:33.010Z,793.13
2022-07-28T09:16:33.056Z,950.63
2022-07-28T09:17:33.008Z,1535.63
2022-07-28T09:18:33.035Z,1636.88
2022-07-28T09:19:34.459Z,1400.63
2022-07-28T09:20:33.094Z,990.00
2022-07-28T09:21:33.119Z,990.00
2022-07-28T09:22:33.151Z,1130.63
2022-07-28T09:23:41.680Z,1063.13
2022-07-28T09:24:33.204Z,826.88
2022-07-28T09:25:33.237Z,1693.13
2022-07-28T09:26:33.261Z,810.00
2022-07-28T09:27:33.293Z,770.63
2022-07-28T09:28:33.314Z,759.38
2022-07-28T09:29:33.351Z,765.00
2022-07-28T09:30:33.368Z,1018.13
2022-07-28T09:31:33.415Z,1147.50
2022-07-28T09:32:33.426Z,1063.13
2022-07-28T09:33:42.870Z,984.38
2022-07-28T09:34:33.480Z,1147.50
2022-07-28T09:35:33.510Z,1265.63
2022-07-28T09:36:33.537Z,1175.63
2022-07-28T09:37:33.564Z,1423.13
2022-07-28T09:38:33.590Z,1535.63
2022-07-28T09:39:33.618Z,1631.25
2022-07-28T09:40:33.645Z,1665.00
2022-07-28T09:41:33.673Z,1732.50
2022-07-28T09:42:33.701Z,1541.25
2022-07-28T09:43:33.729Z,1434.38
2022-07-28T09:44:33.757Z,1473.75
2022-07-28T09:45:33.783Z,1406.25
2022-07-28T09:46:33.986Z,1125.00
2022-07-28T09:47:33.976Z,1006.88
2022-07-28T09:48:34.018Z,1074.38
2022-07-28T09:49:33.969Z,1074.38
2022-07-28T09:50:33.926Z,1265.63
2022-07-28T09:51:33.963Z,1288.13
2022-07-28T09:52:33.984Z,1350.00
2022-07-28T09:53:34.012Z,1271.25
2022-07-28T09:54:38.696Z,1260.00
2022-07-28T09:55:34.067Z,1389.38
2022-07-28T09:56:34.099Z,1710.00
2022-07-28T09:57:34.125Z,1591.88
2022-07-28T09:58:34.159Z,1861.88
2022-07-28T09:59:34.185Z,1980.00
2022-07-28T10:00:34.212Z,1563.75
2022-07-28T10:01:36.648Z,1096.88
2022-07-28T10:02:34.320Z,894.38
2022-07-28T10:03:34.301Z,1119.38
2022-07-28T10:04:34.337Z,1681.88
2022-07-28T10:05:34.363Z,2469.38
2022-07-28T10:06:34.400Z,2840.63
2022-07-28T10:07:34.439Z,3076.88
2022-07-28T10:08:34.450Z,3048.75
2022-07-28T10:09:34.479Z,3009.38
2022-07-28T10:10:34.509Z,2908.13
2022-07-28T10:11:37.856Z,2806.88
2022-07-28T10:12:34.566Z,2902.50
2022-07-28T10:13:34.598Z,2930.63
2022-07-28T10:14:34.630Z,2919.38
2022-07-28T10:15:34.757Z,2925.00
2022-07-28T10:16:34.742Z,2919.38
2022-07-28T10:17:34.727Z,2885.63
2022-07-28T10:18:34.758Z,2891.25
2022-07-28T10:19:34.787Z,2818.13
2022-07-28T10:20:34.824Z,2722.50
2022-07-28T10:21:34.855Z,2660.63
2022-07-28T10:22:38.306Z,2711.25
2022-07-28T10:23:34.918Z,2773.13
2022-07-28T10:24:34.953Z,2660.63
2022-07-28T10:25:34.988Z,2851.88
2022-07-28T10:26:35.021Z,2970.00
2022-07-28T10:27:35.054Z,2868.75
2022-07-28T10:28:38.152Z,2925.00
2022-07-28T10:29:35.124Z,3082.50
2022-07-28T10:30:35.218Z,3082.50
2022-07-28T10:31:35.190Z,3076.88
2022-07-28T10:32:35.225Z,3133.13
2022-07-28T10:33:35.258Z,3223.13
2022-07-28T10:34:35.298Z,3195.00
2022-07-28T10:35:45.217Z,3251.25
2022-07-28T10:36:35.369Z,3324.38
2022-07-28T10:37:35.398Z,1468.13
2022-07-28T10:38:35.433Z,3071.25
2022-07-28T10:39:35.469Z,3273.75
2022-07-28T10:40:35.501Z,3380.63
2022-07-28T10:41:35.544Z,3009.38
2022-07-28T10:42:35.573Z,1378.13
2022-07-28T10:43:35.608Z,793.13
2022-07-28T10:44:35.650Z,731.25
2022-07-28T10:46:03.328Z,765.00
2022-07-28T10:46:35.756Z,787.50
2022-07-28T10:47:36.513Z,2621.25
2022-07-28T10:48:35.812Z,3375.00
2022-07-28T10:49:35.834Z,3279.38
2022-07-28T10:50:35.876Z,3195.00
2022-07-28T10:51:44.633Z,2120.63
2022-07-28T10:52:54.847Z,1237.50
2022-07-28T10:53:37.139Z,776.25
2022-07-28T10:54:35.990Z,1215.00
2022-07-28T10:55:36.023Z,3217.50
2022-07-28T10:56:36.053Z,3031.88
2022-07-28T10:57:36.087Z,1215.00
2022-07-28T10:58:36.121Z,804.38
2022-07-28T10:59:36.153Z,781.88
2022-07-28T11:00:53.054Z,770.63
2022-07-28T11:01:50.047Z,725.63
2022-07-28T11:02:36.327Z,1080.00
2022-07-28T11:03:36.430Z,3228.75
2022-07-28T11:04:36.318Z,3256.88
2022-07-28T11:05:36.361Z,1406.25
2022-07-28T11:06:36.382Z,922.50
2022-07-28T11:07:36.414Z,2413.13
2022-07-28T11:08:36.444Z,3375.00
2022-07-28T11:09:36.483Z,3150.00
2022-07-28T11:10:36.512Z,1327.50
2022-07-28T11:11:36.542Z,1164.38
2022-07-28T11:12:36.575Z,911.25
2022-07-28T11:13:37.112Z,826.88
2022-07-28T11:14:37.035Z,1873.13
2022-07-28T11:15:36.687Z,1918.13
2022-07-28T11:16:37.015Z,1726.88
2022-07-28T11:17:36.802Z,2919.38
2022-07-28T11:18:36.769Z,2981.25
2022-07-28T11:19:51.553Z,2908.13
2022-07-28T11:20:36.839Z,2902.50
2022-07-28T11:21:41.240Z,2936.25
2022-07-28T11:22:36.902Z,2941.88
2022-07-28T11:23:36.932Z,2891.25
2022-07-28T11:24:36.964Z,2851.88
2022-07-28T11:25:37.001Z,2840.63
2022-07-28T11:26:37.036Z,2846.25
2022-07-28T11:27:37.069Z,2851.88
2022-07-28T11:28:37.102Z,2840.63
2022-07-28T11:29:37.137Z,2823.75
2022-07-28T11:30:37.234Z,2806.88
2022-07-28T11:31:37.207Z,2778.75
2022-07-28T11:32:44.137Z,2795.63
2022-07-28T11:33:37.276Z,2778.75
2022-07-28T11:34:37.310Z,2750.63
2022-07-28T11:35:37.348Z,2722.50
2022-07-28T11:36:37.383Z,2705.63
2022-07-28T11:37:37.418Z,2694.38
2022-07-28T11:38:37.455Z,2728.13
2022-07-28T11:39:42.850Z,2756.25
2022-07-28T11:40:37.529Z,2767.50
2022-07-28T11:41:37.563Z,2790.00
2022-07-28T11:42:37.606Z,2806.88
2022-07-28T11:43:39.154Z,2829.38
2022-07-28T11:44:37.674Z,2885.63
2022-07-28T11:45:39.910Z,2840.63
2022-07-28T11:46:38.574Z,2868.75
2022-07-28T11:47:37.789Z,2851.88
2022-07-28T11:48:37.922Z,2868.75
2022-07-28T11:49:37.861Z,2863.13
2022-07-28T11:50:37.900Z,2812.50
2022-07-28T11:51:52.470Z,2806.88
2022-07-28T11:52:37.973Z,2812.50
2022-07-28T11:53:38.011Z,2806.88
2022-07-28T11:54:38.050Z,2835.00
2022-07-28T11:55:55.111Z,2795.63
2022-07-28T11:56:38.127Z,2790.00
2022-07-28T11:57:38.164Z,2784.38
2022-07-28T11:58:38.205Z,2857.50
2022-07-28T11:59:38.251Z,1366.88
2022-07-28T12:00:38.290Z,945.00
2022-07-28T12:01:38.832Z,961.88
2022-07-28T12:02:38.428Z,1552.50
2022-07-28T12:03:50.401Z,888.75
2022-07-28T12:04:38.474Z,804.38
2022-07-28T12:05:41.872Z,680.63
2022-07-28T12:06:38.503Z,641.25
2022-07-28T12:07:38.540Z,669.38
2022-07-28T12:08:38.576Z,708.75
2022-07-28T12:09:42.593Z,928.13
2022-07-28T12:10:55.368Z,3886.88
2022-07-28T12:11:38.683Z,4156.88
2022-07-28T12:12:38.715Z,3999.38
2022-07-28T12:13:38.760Z,1046.25
2022-07-28T12:14:38.952Z,3915.00
2022-07-28T12:15:38.817Z,4185.00
2022-07-28T12:16:39.700Z,4336.88
2022-07-28T12:17:40.810Z,4246.88
2022-07-28T12:18:38.921Z,4314.38
2022-07-28T12:19:38.955Z,4432.50
2022-07-28T12:20:38.990Z,4511.25
2022-07-28T12:21:45.998Z,4500.00
2022-07-28T12:22:39.057Z,4230.00
2022-07-28T12:23:45.746Z,4066.88
2022-07-28T12:24:46.001Z,4089.38
2022-07-28T12:25:39.163Z,4280.63
2022-07-28T12:26:41.111Z,4831.88
2022-07-28T12:27:39.237Z,5203.13
2022-07-28T12:28:39.278Z,5298.75
2022-07-28T12:29:39.304Z,5253.75
2022-07-28T12:30:39.345Z,5034.38
2022-07-28T12:31:39.421Z,4303.13
2022-07-28T12:32:39.416Z,3993.75
2022-07-28T12:33:39.450Z,3988.13
2022-07-28T12:34:39.488Z,4235.63